Time;durP1;ratioP1;P1;durP2;ratioP2;P2;SDS_P1;SDS_P2;PMS_P1;PMS_P2;Temp;Humidity;BMP_temperature;BMP_pressure;BME280_temperature;BME280_humidity;BME280_pressure;Samples;Min_cycle;Max_cycle;Signal;HPM_P1;HPM_P2
2021/04/23 00:01:13;;;;;;;2.22;1.67;;;11.90;51.40;;;;;;5060191;28;20036;-82
2021/04/23 00:03:44;;;;;;;2.67;1.70;;;11.80;51.40;;;;;;5051311;28;20037;-82
2021/04/23 00:06:20;;;;;;;1.90;1.48;;;11.80;51.40;;;;;;5047741;28;20109;-82
2021/04/23 00:08:50;;;;;;;2.08;1.60;;;11.70;51.40;;;;;;5055537;28;20033;-82
2021/04/23 00:11:18;;;;;;;2.30;1.70;;;11.70;51.50;;;;;;5051964;28;20025;-81
2021/04/23 00:13:44;;;;;;;4.22;1.73;;;11.70;51.50;;;;;;5065565;28;20047;-82
2021/04/23 00:16:11;;;;;;;2.90;1.60;;;11.60;51.50;;;;;;5048777;28;20033;-81
2021/04/23 00:18:37;;;;;;;3.65;1.73;;;11.60;51.60;;;;;;5044462;28;20502;-83
2021/04/23 00:21:04;;;;;;;2.90;1.80;;;11.50;51.60;;;;;;5047854;28;20099;-81
2021/04/23 00:23:32;;;;;;;2.55;1.77;;;11.50;51.70;;;;;;5064723;28;20035;-81
2021/04/23 00:25:58;;;;;;;1.95;1.60;;;11.40;51.70;;;;;;5038750;28;20036;-82
2021/04/23 00:28:24;;;;;;;2.22;1.55;;;11.40;51.70;;;;;;5053471;28;20420;-80
2021/04/23 00:30:53;;;;;;;2.00;1.33;;;11.40;51.80;;;;;;5055029;28;20511;-81
2021/04/23 00:33:20;;;;;;;2.78;1.77;;;11.30;51.80;;;;;;5035366;28;20047;-83
2021/04/23 00:35:48;;;;;;;2.80;1.80;;;11.30;51.80;;;;;;5069802;28;20017;-81
2021/04/23 00:38:19;;;;;;;2.85;1.60;;;11.30;51.90;;;;;;5050995;28;20021;-82
2021/04/23 00:41:00;;;;;;;2.67;1.75;;;11.20;51.90;;;;;;5061680;28;20060;-81
2021/04/23 00:43:32;;;;;;;2.72;1.90;;;11.20;51.90;;;;;;5067634;28;20068;-82
2021/04/23 00:45:58;;;;;;;3.20;1.90;;;11.10;51.90;;;;;;5035147;28;20032;-82
2021/04/23 00:48:26;;;;;;;2.60;1.70;;;11.10;51.90;;;;;;5040899;28;20435;-81
2021/04/23 00:51:02;;;;;;;2.70;1.90;;;11.10;52.10;;;;;;5050726;28;20029;-82
2021/04/23 00:53:32;;;;;;;2.58;1.60;;;11.00;52.00;;;;;;5049039;28;20033;-82
2021/04/23 00:56:02;;;;;;;3.17;2.00;;;11.00;52.10;;;;;;5068514;28;20032;-82
2021/04/23 00:58:29;;;;;;;2.03;1.50;;;10.90;52.10;;;;;;5053669;28;20036;-81
2021/04/23 01:00:59;;;;;;;2.53;1.70;;;10.90;52.10;;;;;;5037914;28;20033;-81
2021/04/23 01:03:26;;;;;;;3.05;1.85;;;10.90;52.20;;;;;;5045629;28;20107;-81
2021/04/23 01:05:53;;;;;;;2.65;1.80;;;10.80;52.20;;;;;;5031723;28;20025;-83
2021/04/23 01:08:25;;;;;;;2.53;1.83;;;10.70;52.20;;;;;;5032362;28;20025;-82
2021/04/23 01:11:01;;;;;;;2.78;1.80;;;10.80;52.30;;;;;;5061793;28;20047;-81
2021/04/23 01:13:31;;;;;;;4.32;2.15;;;10.70;52.30;;;;;;5053955;28;20029;-82
2021/04/23 01:15:59;;;;;;;2.45;1.75;;;10.70;52.30;;;;;;5050220;28;20032;-81
2021/04/23 01:18:25;;;;;;;3.08;1.67;;;10.60;52.30;;;;;;5031678;28;20029;-81
2021/04/23 01:21:07;;;;;;;2.78;1.48;;;10.60;52.40;;;;;;5048034;28;20382;-81
2021/04/23 01:23:33;;;;;;;2.05;1.50;;;10.60;52.50;;;;;;5063540;28;20044;-81
2021/04/23 01:26:00;;;;;;;2.53;1.70;;;10.50;52.40;;;;;;5064769;28;20020;-81
2021/04/23 01:28:28;;;;;;;3.50;1.90;;;10.50;52.50;;;;;;5065031;28;20131;-81
2021/04/23 01:30:54;;;;;;;2.97;1.70;;;10.50;52.50;;;;;;5054496;28;20029;-80
2021/04/23 01:33:21;;;;;;;1.90;1.50;;;10.40;52.50;;;;;;5057481;28;20469;-81
2021/04/23 01:35:46;;;;;;;3.50;1.83;;;10.40;52.50;;;;;;5068590;28;20029;-84
2021/04/23 01:38:13;;;;;;;3.33;2.10;;;10.40;52.60;;;;;;5068728;28;20111;-82
2021/04/23 01:40:40;;;;;;;3.78;1.80;;;10.30;52.60;;;;;;5052192;28;20040;-85
2021/04/23 01:43:06;;;;;;;2.42;1.80;;;10.30;52.60;;;;;;5051323;28;20041;-82
2021/04/23 01:45:32;;;;;;;2.30;1.75;;;10.30;52.60;;;;;;5037741;28;20484;-82
2021/04/23 01:47:58;;;;;;;2.45;1.80;;;10.20;52.60;;;;;;5051715;28;20028;-83
2021/04/23 01:50:24;;;;;;;1.83;1.42;;;10.20;52.70;;;;;;5033682;28;20033;-82
2021/04/23 01:52:50;;;;;;;2.53;1.90;;;10.20;52.70;;;;;;5030495;28;20041;-82
2021/04/23 01:55:19;;;;;;;3.15;1.90;;;10.20;52.70;;;;;;5054919;28;21382;-81
2021/04/23 01:57:45;;;;;;;2.92;1.80;;;10.10;52.70;;;;;;5057120;28;20083;-82
2021/04/23 02:00:27;;;;;;;2.63;1.70;;;10.10;52.70;;;;;;5054680;28;20048;-82
2021/04/23 02:02:56;;;;;;;2.88;1.60;;;10.00;52.80;;;;;;5050528;28;20024;-81
2021/04/23 02:05:23;;;;;;;2.70;1.65;;;10.00;52.80;;;;;;5070440;28;20032;-81
2021/04/23 02:07:49;;;;;;;3.35;1.98;;;10.00;52.80;;;;;;5049555;28;20044;-85
2021/04/23 02:10:18;;;;;;;2.10;1.65;;;9.90;52.80;;;;;;5053034;28;20056;-82
2021/04/23 02:12:46;;;;;;;3.03;1.70;;;9.90;52.90;;;;;;5045986;28;20140;-81
2021/04/23 02:15:14;;;;;;;2.92;2.00;;;9.90;52.90;;;;;;5064800;28;20029;-81
2021/04/23 02:17:42;;;;;;;5.80;2.20;;;9.80;52.90;;;;;;5056217;28;20100;-81
2021/04/23 02:20:16;;;;;;;3.35;2.00;;;9.80;52.90;;;;;;5053220;28;20075;-82
2021/04/23 02:22:44;;;;;;;2.83;1.90;;;9.80;53.00;;;;;;5063347;28;20029;-82
2021/04/23 02:25:12;;;;;;;2.80;1.92;;;9.70;53.00;;;;;;5040452;28;20047;-82
2021/04/23 02:27:39;;;;;;;2.67;1.70;;;9.70;53.00;;;;;;5063679;28;20029;-81
2021/04/23 02:30:12;;;;;;;2.70;1.80;;;9.70;53.00;;;;;;5000742;28;20033;-81
2021/04/23 02:32:38;;;;;;;2.45;1.92;;;9.60;53.00;;;;;;5018022;28;20180;-82
2021/04/23 02:35:07;;;;;;;3.47;2.08;;;9.60;53.10;;;;;;5014221;28;20043;-82
2021/04/23 02:37:34;;;;;;;3.58;1.85;;;9.60;53.10;;;;;;5023682;28;20052;-81
2021/04/23 02:39:59;;;;;;;1.98;1.63;;;9.60;53.10;;;;;;5000477;28;20462;-82
2021/04/23 02:42:27;;;;;;;2.90;1.70;;;9.50;53.10;;;;;;4999855;28;20075;-82
2021/04/23 02:44:52;;;;;;;3.85;2.00;;;9.50;53.20;;;;;;5007674;28;20105;-81
2021/04/23 02:47:19;;;;;;;3.30;1.95;;;9.50;53.20;;;;;;4999295;28;20033;-82
2021/04/23 02:49:44;;;;;;;2.53;1.80;;;9.50;53.30;;;;;;5025613;28;20037;-81
2021/04/23 02:52:11;;;;;;;2.55;1.85;;;9.40;53.20;;;;;;5021594;28;20033;-82
2021/04/23 02:54:37;;;;;;;3.28;1.75;;;9.40;53.30;;;;;;4999424;28;20021;-83
2021/04/23 02:57:03;;;;;;;2.45;1.80;;;9.40;53.30;;;;;;5014160;28;20040;-81
2021/04/23 02:59:29;;;;;;;2.88;1.98;;;9.40;53.30;;;;;;5014472;28;20037;-82
2021/04/23 03:01:55;;;;;;;2.63;1.80;;;9.30;53.30;;;;;;5017449;28;20047;-82
2021/04/23 03:04:22;;;;;;;3.25;1.92;;;9.30;53.30;;;;;;4997833;28;20037;-83
2021/04/23 03:06:49;;;;;;;2.20;1.77;;;9.30;53.40;;;;;;5000605;28;20025;-82
2021/04/23 03:09:15;;;;;;;2.33;1.80;;;9.20;53.40;;;;;;5034710;28;20029;-83
2021/04/23 03:11:42;;;;;;;3.03;1.90;;;9.20;53.40;;;;;;5003829;28;20033;-81
2021/04/23 03:14:09;;;;;;;2.90;1.92;;;9.20;53.40;;;;;;4997176;28;20055;-81
2021/04/23 03:16:39;;;;;;;2.50;2.03;;;9.20;53.50;;;;;;5012527;28;20033;-81
2021/04/23 03:19:13;;;;;;;3.60;1.80;;;9.20;53.50;;;;;;5019790;28;20123;-81
2021/04/23 03:21:41;;;;;;;3.38;1.80;;;9.10;53.60;;;;;;5007533;28;20048;-83
2021/04/23 03:24:11;;;;;;;4.70;2.15;;;9.10;53.50;;;;;;5014390;28;20037;-81
2021/04/23 03:26:37;;;;;;;4.00;1.88;;;9.10;53.50;;;;;;5028815;28;20025;-81
2021/04/23 03:29:05;;;;;;;2.83;1.83;;;9.00;53.50;;;;;;5035453;28;20056;-81
2021/04/23 03:31:31;;;;;;;2.65;1.85;;;9.10;53.60;;;;;;5059757;28;20050;-82
2021/04/23 03:33:57;;;;;;;2.83;2.13;;;9.00;53.60;;;;;;5049866;28;20032;-82
2021/04/23 03:36:23;;;;;;;3.88;2.30;;;9.00;53.60;;;;;;5055928;28;20028;-81
2021/04/23 03:38:50;;;;;;;2.33;1.67;;;8.90;53.60;;;;;;5036558;28;20021;-82
2021/04/23 03:41:19;;;;;;;3.05;2.03;;;8.90;53.60;;;;;;5047302;28;20051;-80
2021/04/23 03:43:46;;;;;;;3.13;2.10;;;8.90;53.70;;;;;;5051973;28;20028;-86
2021/04/23 03:46:12;;;;;;;3.47;1.80;;;8.80;53.60;;;;;;5053465;28;20044;-81
2021/04/23 03:48:39;;;;;;;3.20;2.20;;;8.80;53.70;;;;;;5053217;28;20029;-81
2021/04/23 03:51:06;;;;;;;3.78;1.88;;;8.80;53.70;;;;;;5044102;28;20170;-81
2021/04/23 03:53:32;;;;;;;3.65;2.38;;;8.80;54.40;;;;;;5037497;28;20029;-81
2021/04/23 03:55:58;;;;;;;2.38;1.73;;;8.80;53.70;;;;;;5066544;28;20028;-85
2021/04/23 03:58:25;;;;;;;3.65;1.90;;;8.80;53.80;;;;;;5071562;28;20025;-81
2021/04/23 04:00:54;;;;;;;2.17;1.98;;;8.70;53.70;;;;;;5049861;28;20083;-81
2021/04/23 04:03:22;;;;;;;3.08;1.90;;;8.70;53.80;;;;;;5050225;28;20111;-81
2021/04/23 04:05:48;;;;;;;3.20;2.00;;;8.70;53.90;;;;;;5040271;28;20042;-81
2021/04/23 04:08:14;;;;;;;2.67;2.00;;;8.60;53.80;;;;;;5061366;28;20021;-81
2021/04/23 04:10:41;;;;;;;2.95;2.03;;;8.60;53.80;;;;;;5070449;28;20477;-80
2021/04/23 04:13:07;;;;;;;3.38;2.10;;;8.60;53.90;;;;;;5047206;28;20040;-81
2021/04/23 04:15:37;;;;;;;3.33;2.13;;;8.60;53.90;;;;;;5028972;28;20035;-82
2021/04/23 04:18:04;;;;;;;2.53;1.95;;;8.50;53.90;;;;;;5054896;28;20111;-81
2021/04/23 04:20:32;;;;;;;2.95;2.00;;;8.50;53.90;;;;;;5062978;28;20503;-80
2021/04/23 04:22:59;;;;;;;2.42;1.83;;;8.50;54.00;;;;;;5062030;28;20056;-82
2021/04/23 04:25:35;;;;;;;3.00;1.90;;;8.50;54.00;;;;;;5051612;28;20060;-80
2021/04/23 04:28:01;;;;;;;2.67;1.75;;;8.40;54.00;;;;;;5058879;28;20048;-82
2021/04/23 04:30:27;;;;;;;2.30;1.73;;;8.40;53.90;;;;;;4989507;28;20045;-83
2021/04/23 04:32:56;;;;;;;2.97;2.00;;;8.40;54.00;;;;;;5003188;28;20398;-81
2021/04/23 04:35:22;;;;;;;2.40;2.00;;;8.40;54.00;;;;;;5014155;28;20052;-83
2021/04/23 04:37:48;;;;;;;2.83;2.10;;;8.30;54.00;;;;;;5008148;28;20033;-81
2021/04/23 04:40:15;;;;;;;3.15;1.90;;;8.30;54.00;;;;;;5013051;28;20523;-85
2021/04/23 04:42:41;;;;;;;2.72;2.25;;;8.30;54.10;;;;;;5017395;28;20033;-83
2021/04/23 04:45:13;;;;;;;3.75;2.13;;;8.30;54.10;;;;;;5021274;28;20033;-83
2021/04/23 04:47:39;;;;;;;2.75;2.00;;;8.20;54.10;;;;;;5008222;28;20021;-79
2021/04/23 04:50:09;;;;;;;2.08;1.67;;;8.20;54.10;;;;;;5012488;28;20115;-83
2021/04/23 04:52:35;;;;;;;3.47;2.10;;;8.20;54.20;;;;;;5018047;28;20025;-82
2021/04/23 04:55:02;;;;;;;4.22;2.30;;;8.20;54.20;;;;;;4999098;28;20034;-81
2021/04/23 04:57:28;;;;;;;3.00;2.03;;;8.20;54.30;;;;;;5024142;28;20057;-87
2021/04/23 04:59:54;;;;;;;2.92;1.85;;;8.20;54.30;;;;;;5010505;28;20028;-86
2021/04/23 05:02:22;;;;;;;2.75;1.98;;;8.20;54.30;;;;;;5016414;28;20539;-87
2021/04/23 05:04:48;;;;;;;3.90;2.22;;;8.10;54.30;;;;;;5018339;28;20056;-85
2021/04/23 05:07:14;;;;;;;4.43;2.20;;;8.10;54.30;;;;;;5002695;28;20583;-88
2021/04/23 05:09:39;;;;;;;3.08;1.90;;;8.10;54.40;;;;;;5020016;28;20036;-85
2021/04/23 05:12:06;;;;;;;3.15;2.20;;;8.10;54.40;;;;;;5021782;28;20458;-93
2021/04/23 05:14:32;;;;;;;2.92;2.00;;;8.10;54.50;;;;;;5025464;28;20029;-87
2021/04/23 05:16:58;;;;;;;2.85;2.15;;;8.10;54.50;;;;;;5015013;28;20107;-83
2021/04/23 05:19:23;;;;;;;3.47;1.95;;;8.10;54.50;;;;;;5012416;28;20079;-81
2021/04/23 05:21:49;;;;;;;2.58;2.17;;;8.10;54.60;;;;;;5014476;28;20092;-82
2021/04/23 05:24:15;;;;;;;2.95;2.10;;;8.00;54.60;;;;;;5007520;28;20033;-82
2021/04/23 05:26:41;;;;;;;3.17;2.17;;;8.00;54.60;;;;;;4988674;28;20048;-80
2021/04/23 05:29:07;;;;;;;3.83;2.40;;;8.00;54.60;;;;;;5027354;28;20049;-84
2021/04/23 05:31:33;;;;;;;2.80;2.10;;;8.00;54.80;;;;;;5052065;28;20102;-84
2021/04/23 05:34:00;;;;;;;3.28;2.00;;;8.10;54.80;;;;;;5046521;28;20473;-78
2021/04/23 05:36:26;;;;;;;2.85;2.20;;;8.10;54.80;;;;;;5054886;28;20052;-84
2021/04/23 05:38:52;;;;;;;4.18;2.20;;;8.10;54.90;;;;;;5048954;28;20033;-82
2021/04/23 05:41:18;;;;;;;3.00;2.30;;;8.00;54.80;;;;;;5056817;28;20025;-82
2021/04/23 05:43:46;;;;;;;4.40;2.50;;;8.00;54.90;;;;;;5074474;28;20071;-82
2021/04/23 05:46:13;;;;;;;3.33;2.17;;;8.00;54.90;;;;;;5053806;28;20376;-82
2021/04/23 05:48:39;;;;;;;3.00;2.13;;;8.10;55.00;;;;;;5057848;28;20483;-82
2021/04/23 05:51:05;;;;;;;3.80;2.30;;;8.00;55.00;;;;;;5057100;28;20028;-82
2021/04/23 05:53:31;;;;;;;3.95;2.30;;;8.10;55.00;;;;;;5040963;28;20029;-81
2021/04/23 05:55:58;;;;;;;3.35;2.47;;;8.10;55.10;;;;;;5077269;28;20040;-81
2021/04/23 05:58:24;;;;;;;4.32;2.42;;;8.10;55.10;;;;;;5057633;28;20458;-81
2021/04/23 06:00:50;;;;;;;4.20;2.20;;;8.10;55.10;;;;;;5054562;28;20106;-80
2021/04/23 06:03:16;;;;;;;3.28;2.33;;;8.10;55.10;;;;;;5060790;28;20067;-82
2021/04/23 06:05:42;;;;;;;3.65;2.28;;;8.10;55.10;;;;;;5064354;28;20456;-82
2021/04/23 06:08:11;;;;;;;4.05;2.40;;;8.10;55.20;;;;;;5054755;28;20029;-82
2021/04/23 06:10:37;;;;;;;2.67;2.00;;;8.10;55.30;;;;;;5063077;28;20459;-83
2021/04/23 06:13:04;;;;;;;4.07;2.15;;;8.10;55.20;;;;;;5043794;28;20091;-81
2021/04/23 06:15:30;;;;;;;3.47;2.40;;;8.20;55.30;;;;;;5043141;28;20044;-81
2021/04/23 06:17:56;;;;;;;4.72;2.47;;;8.20;55.30;;;;;;5053263;28;20032;-81
2021/04/23 06:20:26;;;;;;;4.63;2.53;;;8.20;55.30;;;;;;5061740;28;20084;-80
2021/04/23 06:22:52;;;;;;;5.38;2.60;;;8.20;55.40;;;;;;5074381;28;20461;-82
2021/04/23 06:25:19;;;;;;;4.57;2.63;;;8.20;55.30;;;;;;5057471;28;20029;-81
2021/04/23 06:27:46;;;;;;;3.22;2.20;;;8.30;55.40;;;;;;5061279;28;20033;-80
2021/04/23 06:30:19;;;;;;;3.40;2.13;;;8.30;56.00;;;;;;5020059;28;20025;-82
2021/04/23 06:32:45;;;;;;;3.30;2.20;;;8.30;55.50;;;;;;5025964;28;20034;-81
2021/04/23 06:35:17;;;;;;;3.30;2.30;;;8.30;55.40;;;;;;5028341;28;20112;-81
2021/04/23 06:37:44;;;;;;;2.92;2.13;;;8.30;55.50;;;;;;5027643;28;20021;-81
2021/04/23 06:40:11;;;;;;;3.60;2.17;;;8.30;55.40;;;;;;5017451;28;20029;-81
2021/04/23 06:42:37;;;;;;;3.40;1.98;;;8.40;55.60;;;;;;5015348;28;20063;-81
2021/04/23 06:45:06;;;;;;;3.80;2.20;;;8.40;55.50;;;;;;5026302;28;20160;-84
2021/04/23 06:47:36;;;;;;;3.53;2.30;;;8.40;55.50;;;;;;5030498;28;20036;-80
2021/04/23 06:50:06;;;;;;;3.88;2.33;;;8.40;55.60;;;;;;5005816;28;20029;-81
2021/04/23 06:52:32;;;;;;;3.45;2.03;;;8.50;55.70;;;;;;5010519;28;20064;-81
2021/04/23 06:54:58;;;;;;;3.58;2.03;;;8.50;55.50;;;;;;5020028;28;20025;-81
2021/04/23 06:57:24;;;;;;;3.88;2.40;;;8.50;55.50;;;;;;5002503;28;20171;-82
2021/04/23 06:59:50;;;;;;;4.75;2.10;;;8.50;55.50;;;;;;5016903;28;20025;-82
2021/04/23 07:02:16;;;;;;;2.65;1.95;;;8.60;55.60;;;;;;5017275;28;20429;-82
2021/04/23 07:04:42;;;;;;;3.42;2.10;;;8.60;55.60;;;;;;5014118;28;20114;-82
2021/04/23 07:07:08;;;;;;;3.28;2.00;;;8.70;56.30;;;;;;5042423;28;20081;-83
2021/04/23 07:09:34;;;;;;;4.68;1.92;;;8.70;55.70;;;;;;5008806;28;20064;-82
2021/04/23 07:12:01;;;;;;;2.83;2.08;;;8.70;55.80;;;;;;5020119;28;20036;-82
2021/04/23 07:14:27;;;;;;;4.00;2.03;;;8.70;55.80;;;;;;5030992;28;20029;-83
2021/04/23 07:16:53;;;;;;;2.88;2.10;;;8.80;55.80;;;;;;5004068;28;20049;-82
2021/04/23 07:19:19;;;;;;;2.28;1.80;;;8.80;55.90;;;;;;5012968;28;20025;-82
2021/04/23 07:21:45;;;;;;;2.90;2.30;;;8.80;55.90;;;;;;5019452;28;20028;-84
2021/04/23 07:24:11;;;;;;;2.08;1.65;;;8.90;55.90;;;;;;5007869;28;20042;-82
2021/04/23 07:26:37;;;;;;;3.33;2.10;;;8.90;55.90;;;;;;5017710;28;20055;-83
2021/04/23 07:29:03;;;;;;;2.97;1.83;;;8.90;56.00;;;;;;5030155;28;20396;-81
2021/04/23 07:31:29;;;;;;;2.78;1.90;;;9.00;56.10;;;;;;5048562;28;20027;-82
2021/04/23 07:33:56;;;;;;;4.20;2.28;;;9.00;56.20;;;;;;5064544;28;20037;-82
2021/04/23 07:36:23;;;;;;;3.65;1.80;;;9.00;56.20;;;;;;5049352;28;20028;-81
2021/04/23 07:38:49;;;;;;;2.22;1.80;;;9.10;56.20;;;;;;5055926;28;20032;-82
2021/04/23 07:41:15;;;;;;;4.18;2.15;;;9.10;56.30;;;;;;5061419;28;20074;-81
2021/04/23 07:43:40;;;;;;;2.15;1.70;;;9.20;56.30;;;;;;5052556;28;20059;-82
2021/04/23 07:46:07;;;;;;;2.67;1.95;;;9.20;56.20;;;;;;5052746;28;20037;-82
2021/04/23 07:48:33;;;;;;;2.95;1.90;;;9.20;56.30;;;;;;5040337;28;20025;-82
2021/04/23 07:50:59;;;;;;;2.25;1.60;;;9.30;56.30;;;;;;5043076;28;20067;-81
2021/04/23 07:53:25;;;;;;;2.58;1.70;;;9.30;56.30;;;;;;5065852;28;20507;-83
2021/04/23 07:55:52;;;;;;;2.72;1.70;;;9.40;56.30;;;;;;5052721;28;20033;-81
2021/04/23 07:58:18;;;;;;;2.28;1.65;;;9.40;56.20;;;;;;5057916;28;20118;-82
2021/04/23 08:00:44;;;;;;;1.65;1.55;;;9.50;56.30;;;;;;5063497;28;20025;-81
2021/04/23 08:03:10;;;;;;;2.72;1.60;;;9.50;56.20;;;;;;5062663;28;20138;-81
2021/04/23 08:05:36;;;;;;;1.83;1.60;;;9.50;56.20;;;;;;5061059;28;20029;-82
2021/04/23 08:08:03;;;;;;;1.50;1.38;;;9.60;56.20;;;;;;5052771;28;20024;-81
2021/04/23 08:10:30;;;;;;;4.63;1.70;;;9.60;56.20;;;;;;5050220;28;20044;-82
2021/04/23 08:12:56;;;;;;;1.98;1.40;;;9.60;56.10;;;;;;5053555;28;20047;-82
2021/04/23 08:15:24;;;;;;;2.63;1.50;;;9.70;56.20;;;;;;5063759;28;20503;-82
2021/04/23 08:17:51;;;;;;;2.60;1.50;;;9.70;56.10;;;;;;5024766;28;20028;-82
2021/04/23 08:20:17;;;;;;;2.55;1.75;;;9.80;56.10;;;;;;5060044;28;20473;-82
2021/04/23 08:22:44;;;;;;;2.03;1.40;;;9.80;56.10;;;;;;5036381;28;20457;-82
2021/04/23 08:25:12;;;;;;;1.67;1.23;;;9.90;56.10;;;;;;5051883;28;20053;-83
2021/04/23 08:27:38;;;;;;;2.15;1.42;;;9.90;56.00;;;;;;5066162;28;20032;-83
2021/04/23 08:30:06;;;;;;;1.42;1.27;;;10.00;56.00;;;;;;5055638;28;20053;-81
2021/04/23 08:32:35;;;;;;;3.22;1.40;;;10.00;56.00;;;;;;5037205;28;20037;-82
2021/04/23 08:35:02;;;;;;;2.05;1.50;;;10.10;56.00;;;;;;5045220;28;20032;-81
2021/04/23 08:37:28;;;;;;;1.90;1.27;;;10.20;56.00;;;;;;5023490;28;20086;-80
2021/04/23 08:39:54;;;;;;;1.83;1.25;;;10.20;55.90;;;;;;5036866;28;20029;-79
2021/04/23 08:42:23;;;;;;;2.83;1.58;;;10.30;55.90;;;;;;5037382;28;20533;-79
2021/04/23 08:44:49;;;;;;;2.15;1.60;;;10.30;55.90;;;;;;5055654;28;20123;-81
2021/04/23 08:47:16;;;;;;;2.10;1.30;;;10.40;55.90;;;;;;5070633;28;20423;-80
2021/04/23 08:49:44;;;;;;;1.45;1.20;;;10.40;55.90;;;;;;5054162;28;20377;-82
2021/04/23 08:52:10;;;;;;;3.28;1.48;;;10.50;55.80;;;;;;5055302;28;20051;-79
2021/04/23 08:54:36;;;;;;;2.17;1.15;;;10.60;55.80;;;;;;5071185;28;20052;-80
2021/04/23 08:57:03;;;;;;;1.42;1.30;;;10.60;55.80;;;;;;5069833;28;20029;-80
2021/04/23 08:59:29;;;;;;;1.65;1.40;;;10.70;55.80;;;;;;5063017;28;20021;-81
2021/04/23 09:01:55;;;;;;;2.92;1.30;;;10.70;55.70;;;;;;5065124;28;20040;-80
2021/04/23 09:04:21;;;;;;;2.20;1.30;;;10.80;55.80;;;;;;5018119;28;20442;-81
2021/04/23 09:07:00;;;;;;;2.92;1.20;;;10.90;55.70;;;;;;5062742;28;20036;-81
2021/04/23 09:09:36;;;;;;;1.75;1.15;;;10.90;55.70;;;;;;5070909;28;20484;-81
2021/04/23 09:12:41;;;;;;;1.85;1.35;;;11.00;55.70;;;;;;5071204;28;20099;-81
2021/04/23 09:15:27;;;;;;;3.17;1.70;;;11.10;55.80;;;;;;4993826;28;20460;-80
2021/04/23 09:18:14;;;;;;;2.22;1.45;;;11.10;55.70;;;;;;4979097;28;20538;-81
2021/04/23 09:20:42;;;;;;;2.90;1.35;;;11.20;55.70;;;;;;5040396;28;20043;-80
2021/04/23 09:23:22;;;;;;;2.78;1.33;;;11.30;55.60;;;;;;5067353;28;20099;-82
2021/04/23 09:25:55;;;;;;;1.85;1.25;;;11.30;55.50;;;;;;5070464;28;20036;-80
2021/04/23 09:28:36;;;;;;;2.22;1.10;;;11.40;55.40;;;;;;5069411;28;20037;-80
2021/04/23 09:31:22;;;;;;;1.55;1.35;;;11.50;55.50;;;;;;5006609;28;20417;-79
2021/04/23 09:34:05;;;;;;;1.65;1.35;;;11.60;55.40;;;;;;5014310;28;20542;-79
2021/04/23 09:36:38;;;;;;;1.30;1.20;;;11.70;55.30;;;;;;5028721;28;20029;-80
2021/04/23 09:39:14;;;;;;;1.35;1.20;;;11.70;55.20;;;;;;5051817;28;20470;-80
2021/04/23 09:41:44;;;;;;;2.38;1.30;;;11.80;55.10;;;;;;5003633;28;20030;-80
2021/04/23 09:44:31;;;;;;;1.30;1.20;;;11.90;55.10;;;;;;5014318;28;20024;-80
2021/04/23 09:47:18;;;;;;;3.38;1.48;;;11.90;55.10;;;;;;5014298;28;20033;-80
2021/04/23 09:49:55;;;;;;;1.60;1.25;;;12.00;55.10;;;;;;5003426;28;20033;-80
2021/04/23 09:52:22;;;;;;;2.03;1.25;;;12.10;55.00;;;;;;5001734;28;20033;-81
2021/04/23 09:54:53;;;;;;;1.77;1.23;;;12.20;55.00;;;;;;5017455;28;20075;-81
2021/04/23 09:57:30;;;;;;;1.95;1.30;;;12.30;54.90;;;;;;5003450;28;20025;-80
2021/04/23 09:59:58;;;;;;;1.77;1.40;;;12.40;55.00;;;;;;4992913;28;20061;-78
2021/04/23 10:02:26;;;;;;;2.30;1.10;;;12.50;54.90;;;;;;5012634;28;20065;-85
2021/04/23 10:04:53;;;;;;;2.25;1.42;;;12.50;54.60;;;;;;5000714;28;20142;-83
2021/04/23 10:07:27;;;;;;;1.88;1.50;;;12.60;54.40;;;;;;4985635;28;20029;-85
2021/04/23 10:10:09;;;;;;;1.85;1.35;;;12.70;54.10;;;;;;5028014;28;20040;-86
2021/04/23 10:12:40;;;;;;;2.15;1.48;;;12.80;53.90;;;;;;5012342;28;20132;-83
2021/04/23 10:15:25;;;;;;;2.83;1.63;;;12.90;53.70;;;;;;5016782;28;20033;-84
2021/04/23 10:18:03;;;;;;;1.95;1.30;;;12.90;53.50;;;;;;5018980;28;20029;-86
2021/04/23 10:20:33;;;;;;;2.58;1.30;;;13.00;53.40;;;;;;5007347;28;20048;-83
2021/04/23 10:23:01;;;;;;;2.05;1.48;;;13.10;53.20;;;;;;5002144;28;20041;-86
2021/04/23 10:25:28;;;;;;;3.25;1.73;;;13.20;53.10;;;;;;5017908;28;20120;-85
2021/04/23 10:27:56;;;;;;;3.15;1.77;;;13.30;53.10;;;;;;5011014;28;20068;-86
2021/04/23 10:30:27;;;;;;;3.75;1.83;;;13.40;52.80;;;;;;5038022;28;20041;-84
2021/04/23 10:32:59;;;;;;;2.88;1.58;;;13.50;52.70;;;;;;5063338;28;20070;-84
2021/04/23 10:35:29;;;;;;;4.50;2.00;;;13.50;52.40;;;;;;5046161;28;20032;-83
2021/04/23 10:38:06;;;;;;;2.22;1.65;;;13.60;52.30;;;;;;5037533;28;20028;-84
2021/04/23 10:40:33;;;;;;;4.30;2.08;;;13.70;52.20;;;;;;5049455;28;20029;-83
2021/04/23 10:42:59;;;;;;;3.97;2.00;;;13.80;52.10;;;;;;5053826;28;20025;-87
2021/04/23 10:45:39;;;;;;;3.10;1.67;;;13.90;51.90;;;;;;5045312;28;20044;-85
2021/04/23 10:48:16;;;;;;;1.98;1.27;;;14.00;51.80;;;;;;5061779;28;20060;-85
2021/04/23 10:50:54;;;;;;;3.38;1.60;;;14.10;51.60;;;;;;5053323;28;20040;-84
2021/04/23 10:53:26;;;;;;;3.08;1.98;;;14.10;51.40;;;;;;5043832;28;20465;-84
2021/04/23 10:56:00;;;;;;;2.70;1.73;;;14.20;51.30;;;;;;5072281;28;20028;-83
2021/04/23 10:58:26;;;;;;;4.90;1.83;;;14.30;51.10;;;;;;5072819;28;20150;-84
2021/04/23 11:00:57;;;;;;;3.22;1.58;;;14.40;51.10;;;;;;5073020;28;20111;-83
2021/04/23 11:03:33;;;;;;;4.45;1.60;;;14.50;50.90;;;;;;5034267;28;20095;-85
2021/04/23 11:06:13;;;;;;;3.83;1.67;;;14.60;50.70;;;;;;5060332;28;20093;-83
2021/04/23 11:08:59;;;;;;;4.28;1.77;;;14.60;51.20;;;;;;5040794;28;20032;-84
2021/04/23 11:11:32;;;;;;;2.58;1.60;;;14.70;50.60;;;;;;5052847;28;20093;-83
2021/04/23 11:14:20;;;;;;;2.35;1.70;;;14.80;50.40;;;;;;5055822;28;20024;-84
2021/04/23 11:16:47;;;;;;;4.63;1.88;;;14.90;50.40;;;;;;5062985;28;20033;-84
2021/04/23 11:19:19;;;;;;;2.40;1.42;;;15.00;50.30;;;;;;5053457;28;20040;-84
2021/04/23 11:21:46;;;;;;;5.05;1.92;;;15.00;50.20;;;;;;5072124;28;20078;-88
2021/04/23 11:24:21;;;;;;;3.17;1.70;;;15.20;50.20;;;;;;5058984;28;20037;-87
2021/04/23 11:26:53;;;;;;;3.63;1.42;;;15.30;50.10;;;;;;5058015;28;20033;-79
2021/04/23 11:29:40;;;;;;;3.22;1.30;;;15.30;50.00;;;;;;5052208;28;20496;-79
2021/04/23 11:32:17;;;;;;;2.90;1.50;;;15.40;49.90;;;;;;5040189;28;20094;-79
2021/04/23 11:34:47;;;;;;;3.15;1.58;;;15.50;49.80;;;;;;5055813;28;20032;-80
2021/04/23 11:37:26;;;;;;;3.38;1.80;;;15.50;49.60;;;;;;5058872;28;20033;-79
2021/04/23 11:39:58;;;;;;;3.80;1.77;;;15.60;49.50;;;;;;5055570;28;20025;-80
2021/04/23 11:42:24;;;;;;;2.47;1.58;;;15.70;49.40;;;;;;5063503;28;20066;-80
2021/04/23 11:44:52;;;;;;;3.10;1.73;;;15.70;49.30;;;;;;5048572;28;20384;-81
2021/04/23 11:47:29;;;;;;;4.05;1.83;;;15.80;49.30;;;;;;5072190;28;20054;-80
2021/04/23 11:50:05;;;;;;;2.80;1.58;;;15.90;49.20;;;;;;5045285;28;20488;-81
2021/04/23 11:52:31;;;;;;;3.15;1.50;;;15.90;49.10;;;;;;5041764;28;20483;-80
2021/04/23 11:54:58;;;;;;;3.28;1.80;;;16.00;49.00;;;;;;5065003;28;20016;-81
2021/04/23 11:57:29;;;;;;;3.13;1.40;;;16.00;48.90;;;;;;5055363;28;20097;-80
2021/04/23 12:00:14;;;;;;;4.53;1.80;;;16.10;48.80;;;;;;5053387;28;20031;-81
2021/04/23 12:02:46;;;;;;;4.82;1.48;;;16.10;48.70;;;;;;5044354;28;20068;-84
2021/04/23 12:05:36;;;;;;;5.10;1.80;;;16.20;48.60;;;;;;5060854;28;20031;-81
2021/04/23 12:08:32;;;;;;;3.13;1.60;;;16.20;48.50;;;;;;5043374;28;20066;-81
2021/04/23 12:11:08;;;;;;;4.28;1.80;;;16.20;48.40;;;;;;5054360;28;20551;-81
2021/04/23 12:13:40;;;;;;;3.08;1.40;;;16.30;48.30;;;;;;5052056;28;20052;-82
2021/04/23 12:16:11;;;;;;;2.60;1.40;;;16.30;48.10;;;;;;5053562;28;20424;-80
2021/04/23 12:18:51;;;;;;;2.38;1.50;;;16.40;47.90;;;;;;5064706;28;20029;-81
2021/04/23 12:21:18;;;;;;;2.55;1.48;;;16.40;47.60;;;;;;5053118;28;20036;-81
2021/04/23 12:23:44;;;;;;;2.55;1.50;;;16.40;47.50;;;;;;5058916;28;20028;-81
2021/04/23 12:26:12;;;;;;;3.42;1.50;;;16.40;47.40;;;;;;5071775;28;20385;-81
2021/04/23 12:28:43;;;;;;;3.97;1.40;;;16.50;47.20;;;;;;5055185;28;20033;-80
2021/04/23 12:31:15;;;;;;;3.28;1.65;;;16.50;47.00;;;;;;5053062;28;21092;-80
2021/04/23 12:33:47;;;;;;;2.90;1.52;;;16.50;46.80;;;;;;5040219;28;20469;-81
2021/04/23 12:36:36;;;;;;;3.25;1.50;;;16.50;46.60;;;;;;5057561;28;20036;-81
2021/04/23 12:39:15;;;;;;;1.70;1.13;;;16.60;46.40;;;;;;5062001;28;20044;-80
2021/04/23 12:41:48;;;;;;;3.25;1.40;;;16.60;46.30;;;;;;5066278;28;20028;-81
2021/04/23 12:44:27;;;;;;;2.35;1.42;;;16.60;46.20;;;;;;5071201;28;20028;-81
2021/04/23 12:46:55;;;;;;;4.03;1.70;;;16.60;46.00;;;;;;5038579;28;20396;-81
2021/04/23 12:49:31;;;;;;;3.35;1.63;;;16.70;46.20;;;;;;5060040;28;20012;-81
2021/04/23 12:52:03;;;;;;;3.28;1.75;;;16.70;46.30;;;;;;5069636;28;20024;-81
2021/04/23 12:54:36;;;;;;;4.13;1.88;;;16.80;46.50;;;;;;5051656;28;20056;-81
2021/04/23 12:57:17;;;;;;;3.15;1.50;;;16.80;46.60;;;;;;5066481;28;20020;-80
2021/04/23 13:00:01;;;;;;;3.58;1.60;;;16.90;46.80;;;;;;5060867;28;20032;-81
2021/04/23 13:02:30;;;;;;;2.57;1.50;;;17.00;46.80;;;;;;5065866;28;20060;-82
2021/04/23 13:05:05;;;;;;;3.45;1.63;;;17.00;46.80;;;;;;5061530;28;20361;-84